createdAt,value
2023-03-24T00:00:47.842Z,87.00
2023-03-24T00:03:17.475Z,87.60
2023-03-24T00:05:45.388Z,88.70
2023-03-24T00:08:12.950Z,87.70
2023-03-24T00:10:42.821Z,89.10
2023-03-24T00:13:10.682Z,88.30
2023-03-24T00:15:38.276Z,87.80
2023-03-24T00:18:06.425Z,88.90
2023-03-24T00:20:34.035Z,90.00
2023-03-24T00:23:01.828Z,90.00
2023-03-24T00:25:36.603Z,87.10
2023-03-24T00:28:07.379Z,85.50
2023-03-24T00:30:35.659Z,83.90
2023-03-24T00:33:04.341Z,85.30
2023-03-24T00:35:32.256Z,83.80
2023-03-24T00:38:00.686Z,84.60
2023-03-24T00:40:28.459Z,83.30
2023-03-24T00:42:56.343Z,84.30
2023-03-24T00:45:25.582Z,85.00
2023-03-24T00:47:58.250Z,84.00
2023-03-24T00:50:27.397Z,84.40
2023-03-24T00:52:56.552Z,84.50
2023-03-24T00:55:24.199Z,84.40
2023-03-24T00:57:52.203Z,85.00
2023-03-24T01:00:26.342Z,85.70
2023-03-24T01:02:56.805Z,86.20
2023-03-24T01:05:30.013Z,86.40
2023-03-24T01:07:59.460Z,87.10
2023-03-24T01:10:27.877Z,85.80
2023-03-24T01:12:57.353Z,86.80
2023-03-24T01:15:31.271Z,86.70
2023-03-24T01:18:02.235Z,87.10
2023-03-24T01:20:35.755Z,87.60
2023-03-24T01:23:07.619Z,88.50
2023-03-24T01:25:37.330Z,87.60
2023-03-24T01:28:05.203Z,87.50
2023-03-24T01:30:32.963Z,87.60
2023-03-24T01:33:00.786Z,87.70
2023-03-24T01:35:29.504Z,87.70
2023-03-24T01:37:59.106Z,88.70
2023-03-24T01:40:31.369Z,88.50
2023-03-24T01:42:59.712Z,87.40
2023-03-24T01:45:39.917Z,87.00
2023-03-24T01:48:46.418Z,84.60
2023-03-24T01:51:26.134Z,85.20
2023-03-24T01:54:02.381Z,84.60
2023-03-24T01:56:35.495Z,85.90
2023-03-24T01:59:08.938Z,84.70
2023-03-24T02:01:45.730Z,84.20
2023-03-24T02:04:54.173Z,82.90
2023-03-24T02:07:36.753Z,83.40
2023-03-24T02:10:08.338Z,83.00
2023-03-24T02:12:37.065Z,84.30
2023-03-24T02:15:08.809Z,84.00
2023-03-24T02:17:37.387Z,85.00
2023-03-24T02:20:22.088Z,85.60
2023-03-24T02:23:10.206Z,87.10
2023-03-24T02:25:59.036Z,85.60
2023-03-24T02:28:47.352Z,84.80
2023-03-24T02:31:50.373Z,87.30
2023-03-24T02:34:36.156Z,87.50
2023-03-24T02:37:29.850Z,86.00
2023-03-24T02:40:19.170Z,88.30
2023-03-24T02:43:10.434Z,87.30
2023-03-24T02:45:54.745Z,86.60
2023-03-24T02:48:37.901Z,88.10
2023-03-24T02:51:06.023Z,88.80
2023-03-24T02:54:06.163Z,88.30
2023-03-24T02:56:58.582Z,90.30
2023-03-24T03:00:01.832Z,89.30
2023-03-24T03:02:57.851Z,88.30
2023-03-24T03:05:35.808Z,90.20
2023-03-24T03:08:07.804Z,89.00
2023-03-24T03:10:42.963Z,89.70
2023-03-24T03:13:27.805Z,90.00
2023-03-24T03:15:59.922Z,90.50
2023-03-24T03:18:43.498Z,89.50
2023-03-24T03:21:16.038Z,88.80
2023-03-24T03:23:46.967Z,87.40
2023-03-24T03:26:18.186Z,89.90
2023-03-24T03:28:58.039Z,89.40
2023-03-24T03:31:38.091Z,89.10
2023-03-24T03:34:08.903Z,88.10
2023-03-24T03:36:46.541Z,89.30
2023-03-24T03:39:31.202Z,89.90
2023-03-24T03:42:02.450Z,90.30
2023-03-24T03:44:31.802Z,88.80
2023-03-24T03:47:00.050Z,90.10
2023-03-24T03:49:38.536Z,89.10
2023-03-24T03:52:08.053Z,88.60
2023-03-24T03:54:37.844Z,89.90
2023-03-24T03:57:06.285Z,90.00
2023-03-24T03:59:51.491Z,90.50
2023-03-24T04:02:36.317Z,89.00
2023-03-24T04:05:37.060Z,88.70
2023-03-24T04:08:22.297Z,90.20
2023-03-24T04:11:13.610Z,90.40
2023-03-24T04:14:12.686Z,89.80
2023-03-24T04:17:08.956Z,91.20
2023-03-24T04:19:51.211Z,90.70
2023-03-24T04:22:38.434Z,90.60
2023-03-24T04:25:40.991Z,90.70
2023-03-24T04:28:20.418Z,90.50
2023-03-24T04:31:01.435Z,90.60
2023-03-24T04:34:04.132Z,90.50
2023-03-24T04:36:44.603Z,90.20
2023-03-24T04:39:29.668Z,91.60
2023-03-24T04:42:04.747Z,91.50
2023-03-24T04:44:33.700Z,91.20
2023-03-24T04:47:28.817Z,92.40
2023-03-24T04:50:11.610Z,91.70
2023-03-24T04:52:41.870Z,92.00
2023-03-24T04:55:32.419Z,91.30
2023-03-24T04:58:00.523Z,91.80
2023-03-24T05:00:28.376Z,92.20
2023-03-24T05:02:56.127Z,92.50
2023-03-24T05:05:26.979Z,93.60
2023-03-24T05:07:57.099Z,93.30
2023-03-24T05:10:24.833Z,92.90
2023-03-24T05:12:56.104Z,93.20
2023-03-24T05:15:43.968Z,92.00
2023-03-24T05:18:24.984Z,94.00
2023-03-24T05:20:53.840Z,93.30
2023-03-24T05:23:22.881Z,93.60
2023-03-24T05:25:51.374Z,93.50
2023-03-24T05:28:22.558Z,92.20
2023-03-24T05:30:51.466Z,93.40
2023-03-24T05:33:35.838Z,93.70
2023-03-24T05:36:04.546Z,93.30
2023-03-24T05:38:32.894Z,93.30
2023-03-24T05:41:01.881Z,92.70
2023-03-24T05:43:35.725Z,92.50
2023-03-24T05:46:11.200Z,91.50
2023-03-24T05:48:39.616Z,92.90
2023-03-24T05:51:11.897Z,95.40
2023-03-24T05:53:39.792Z,94.40
2023-03-24T05:56:14.790Z,92.90
2023-03-24T05:59:00.464Z,92.40
2023-03-24T06:01:48.423Z,91.60
2023-03-24T06:04:23.855Z,91.20
2023-03-24T06:06:56.176Z,91.50
2023-03-24T06:09:42.565Z,91.80
2023-03-24T06:12:13.878Z,91.50
2023-03-24T06:14:50.326Z,91.20
2023-03-24T06:17:21.467Z,91.00
2023-03-24T06:19:52.391Z,90.90
2023-03-24T06:22:49.864Z,89.70
2023-03-24T06:25:26.417Z,89.60
2023-03-24T06:28:26.195Z,90.10
2023-03-24T06:30:56.826Z,89.30
2023-03-24T06:33:32.501Z,88.40
2023-03-24T06:36:01.926Z,88.20
2023-03-24T06:38:31.302Z,87.70
2023-03-24T06:41:04.856Z,87.20
2023-03-24T06:43:33.290Z,84.90
2023-03-24T06:46:01.586Z,84.20
2023-03-24T06:48:30.446Z,84.90
2023-03-24T06:51:04.257Z,84.00
2023-03-24T06:53:32.298Z,83.90
2023-03-24T06:56:00.008Z,84.10
2023-03-24T06:58:35.057Z,84.70
2023-03-24T07:01:07.401Z,85.00
2023-03-24T07:03:38.726Z,83.90
2023-03-24T07:06:40.307Z,83.70
2023-03-24T07:09:15.309Z,83.20
2023-03-24T07:11:42.943Z,82.40
2023-03-24T07:14:11.032Z,82.70
2023-03-24T07:16:39.685Z,82.80
2023-03-24T07:19:27.704Z,83.30
2023-03-24T07:22:14.451Z,82.90
2023-03-24T07:25:04.654Z,83.00
2023-03-24T07:27:42.941Z,81.10
2023-03-24T07:30:11.577Z,80.70
2023-03-24T07:32:42.766Z,80.60
2023-03-24T07:35:12.522Z,79.70
2023-03-24T07:37:40.640Z,81.30
2023-03-24T07:40:13.327Z,80.20
2023-03-24T07:42:42.733Z,80.90
2023-03-24T07:45:33.806Z,80.30
2023-03-24T07:48:04.492Z,80.60
2023-03-24T07:50:36.280Z,79.10
2023-03-24T07:53:11.401Z,78.30
2023-03-24T07:55:39.235Z,78.10
2023-03-24T07:58:13.014Z,78.10
2023-03-24T08:00:48.287Z,78.40
2023-03-24T08:03:28.462Z,78.00
2023-03-24T08:06:18.229Z,75.50
2023-03-24T08:08:51.461Z,76.80
2023-03-24T08:11:19.067Z,75.20
2023-03-24T08:13:46.757Z,75.10
2023-03-24T08:16:14.481Z,76.40
2023-03-24T08:18:42.188Z,75.50
2023-03-24T08:21:09.893Z,74.90
2023-03-24T08:23:37.827Z,75.10
2023-03-24T08:26:07.226Z,74.50
2023-03-24T08:28:34.852Z,72.80
2023-03-24T08:31:02.649Z,74.30
2023-03-24T08:33:30.905Z,73.90
2023-03-24T08:36:00.959Z,72.50
2023-03-24T08:38:32.552Z,73.30
2023-03-24T08:41:02.806Z,71.80
2023-03-24T08:43:31.784Z,71.40
2023-03-24T08:46:01.195Z,72.50
2023-03-24T08:48:30.243Z,71.30
2023-03-24T08:50:57.907Z,72.60
2023-03-24T08:53:25.951Z,71.90
2023-03-24T08:55:53.814Z,70.80
2023-03-24T08:58:21.935Z,71.10
2023-03-24T09:00:49.860Z,70.90
2023-03-24T09:03:22.721Z,72.10
2023-03-24T09:05:51.254Z,71.00
2023-03-24T09:08:19.979Z,71.60
2023-03-24T09:10:47.789Z,71.50
2023-03-24T09:13:16.686Z,73.30
2023-03-24T09:15:53.745Z,71.20
2023-03-24T09:18:22.200Z,71.20
2023-03-24T09:20:51.186Z,71.60
2023-03-24T09:23:19.710Z,70.40
2023-03-24T09:25:50.325Z,70.40
2023-03-24T09:28:18.384Z,69.50
2023-03-24T09:30:46.313Z,70.80
2023-03-24T09:33:14.293Z,68.30
2023-03-24T09:35:42.099Z,70.50
2023-03-24T09:38:12.315Z,71.10
2023-03-24T09:40:42.666Z,69.30
2023-03-24T09:43:19.166Z,69.40
2023-03-24T09:45:58.809Z,68.30
2023-03-24T09:48:52.137Z,69.90
2023-03-24T09:51:24.178Z,68.60
2023-03-24T09:54:20.094Z,66.90
2023-03-24T09:56:51.239Z,66.70
2023-03-24T09:59:21.377Z,65.60
2023-03-24T10:01:49.844Z,66.40
2023-03-24T10:04:21.082Z,65.00
2023-03-24T10:06:53.533Z,65.90
2023-03-24T10:09:28.832Z,66.00
2023-03-24T10:12:26.138Z,65.00
2023-03-24T10:15:06.382Z,66.00
2023-03-24T10:17:58.350Z,65.20
2023-03-24T10:20:37.830Z,65.20
2023-03-24T10:23:34.725Z,66.20
2023-03-24T10:26:28.692Z,65.00
2023-03-24T10:29:28.940Z,64.00
2023-03-24T10:32:20.990Z,63.60
2023-03-24T10:34:55.666Z,63.00
2023-03-24T10:37:23.666Z,63.00
2023-03-24T10:39:52.103Z,63.30
2023-03-24T10:42:25.732Z,62.60
2023-03-24T10:44:53.757Z,62.20
2023-03-24T10:47:32.963Z,62.30
2023-03-24T10:50:12.595Z,63.00
2023-03-24T10:52:45.657Z,63.00
2023-03-24T10:55:19.711Z,61.50
2023-03-24T10:57:56.647Z,61.00
2023-03-24T11:00:29.877Z,62.80
2023-03-24T11:03:12.025Z,62.00
2023-03-24T11:05:42.007Z,62.80
2023-03-24T11:08:32.725Z,62.10
2023-03-24T11:11:00.678Z,62.40
2023-03-24T11:13:33.668Z,61.50
2023-03-24T11:16:09.778Z,62.50
2023-03-24T11:18:38.088Z,61.70
2023-03-24T11:21:07.159Z,61.20
2023-03-24T11:23:39.371Z,62.50
2023-03-24T11:26:08.688Z,61.90
2023-03-24T11:28:52.950Z,61.10
2023-03-24T11:31:32.138Z,61.50
2023-03-24T11:34:15.105Z,61.40
2023-03-24T11:36:51.007Z,61.20
2023-03-24T11:39:26.959Z,60.60
2023-03-24T11:42:16.637Z,61.80
2023-03-24T11:44:49.401Z,60.50
2023-03-24T11:47:38.572Z,60.80
2023-03-24T11:50:12.160Z,60.20
2023-03-24T11:52:49.222Z,61.80
2023-03-24T11:55:39.444Z,61.60
2023-03-24T11:58:17.117Z,61.40
2023-03-24T12:00:57.839Z,60.30
2023-03-24T12:03:44.495Z,61.50
2023-03-24T12:06:28.659Z,61.50
2023-03-24T12:09:32.849Z,60.50
2023-03-24T12:12:30.067Z,62.40
2023-03-24T12:15:32.991Z,61.60
2023-03-24T12:18:15.916Z,61.20
2023-03-24T12:21:12.263Z,62.40
2023-03-24T12:23:58.950Z,62.40
2023-03-24T12:26:31.729Z,63.30
2023-03-24T12:29:06.079Z,62.00
2023-03-24T12:31:40.414Z,62.60
2023-03-24T12:34:08.758Z,62.20
2023-03-24T12:36:37.290Z,61.60
2023-03-24T12:39:20.326Z,62.10
2023-03-24T12:41:58.267Z,61.10
2023-03-24T12:44:31.975Z,61.70
2023-03-24T12:47:18.820Z,62.10
2023-03-24T12:49:58.498Z,60.80
2023-03-24T12:52:41.058Z,61.50
2023-03-24T12:55:18.969Z,62.30
2023-03-24T12:58:06.496Z,62.00
2023-03-24T13:00:39.456Z,61.60
2023-03-24T13:03:14.612Z,61.50
2023-03-24T13:06:04.486Z,61.70
2023-03-24T13:08:42.536Z,61.80
2023-03-24T13:11:21.865Z,61.20
2023-03-24T13:13:59.697Z,61.70
2023-03-24T13:16:33.783Z,61.00
2023-03-24T13:19:03.390Z,61.50
2023-03-24T13:21:35.562Z,61.70
2023-03-24T13:24:09.597Z,61.40
2023-03-24T13:26:41.225Z,61.60
2023-03-24T13:30:08.780Z,61.50
2023-03-24T13:33:06.154Z,60.70
2023-03-24T13:35:55.158Z,61.50
2023-03-24T13:38:32.617Z,61.10
2023-03-24T13:41:05.433Z,60.80
2023-03-24T13:43:34.644Z,60.20
2023-03-24T13:46:09.246Z,60.40
2023-03-24T13:48:41.742Z,59.70
2023-03-24T13:51:18.986Z,60.00
2023-03-24T13:53:51.238Z,58.70
2023-03-24T13:56:48.216Z,60.30
2023-03-24T13:59:33.989Z,59.20
2023-03-24T14:02:21.168Z,59.90
2023-03-24T14:05:02.461Z,59.00
2023-03-24T14:07:43.696Z,60.60
2023-03-24T14:10:14.685Z,60.20
2023-03-24T14:13:11.626Z,59.40
2023-03-24T14:15:46.534Z,59.60
2023-03-24T14:18:16.482Z,58.40
2023-03-24T14:21:10.992Z,60.10
2023-03-24T14:23:38.658Z,59.70
2023-03-24T14:26:15.036Z,60.30
2023-03-24T14:28:48.135Z,60.80
2023-03-24T14:31:16.265Z,60.30
2023-03-24T14:34:02.438Z,62.10
2023-03-24T14:36:35.275Z,58.60
2023-03-24T14:39:35.783Z,57.50
2023-03-24T14:42:26.261Z,57.30
2023-03-24T14:44:56.449Z,57.00
2023-03-24T14:47:33.093Z,57.10
2023-03-24T14:50:10.593Z,57.20
2023-03-24T14:52:43.777Z,57.00
2023-03-24T14:55:18.924Z,57.10
2023-03-24T14:57:56.465Z,57.40
2023-03-24T15:00:40.584Z,57.80
2023-03-24T15:03:24.254Z,57.60
2023-03-24T15:05:52.023Z,59.30
2023-03-24T15:08:26.843Z,58.60
2023-03-24T15:11:08.844Z,58.10
2023-03-24T15:13:51.305Z,57.80
2023-03-24T15:16:26.031Z,57.50
2023-03-24T15:19:20.785Z,57.50
2023-03-24T15:21:51.007Z,57.60
2023-03-24T15:24:21.826Z,57.40
2023-03-24T15:26:53.943Z,57.10
2023-03-24T15:29:21.886Z,56.80
2023-03-24T15:31:51.334Z,56.70
2023-03-24T15:34:31.573Z,57.10
2023-03-24T15:37:05.385Z,56.90
2023-03-24T15:39:36.401Z,56.90
2023-03-24T15:42:09.303Z,57.00
2023-03-24T15:44:40.123Z,57.00
2023-03-24T15:47:22.771Z,57.00
2023-03-24T15:49:54.924Z,58.00
2023-03-24T15:52:35.293Z,57.60
2023-03-24T15:55:07.784Z,57.80
2023-03-24T15:57:43.435Z,58.20
2023-03-24T16:00:19.166Z,57.70
2023-03-24T16:02:51.618Z,58.40
2023-03-24T16:05:25.428Z,58.40
2023-03-24T16:08:01.482Z,58.20
2023-03-24T16:10:34.122Z,58.20
2023-03-24T16:13:20.360Z,58.40
2023-03-24T16:16:00.156Z,58.10
2023-03-24T16:18:34.622Z,58.40
2023-03-24T16:21:09.367Z,58.80
2023-03-24T16:23:37.010Z,59.30
2023-03-24T16:26:04.840Z,59.30
2023-03-24T16:28:33.916Z,58.50
2023-03-24T16:31:04.456Z,59.30
2023-03-24T16:33:33.361Z,59.50
2023-03-24T16:36:01.357Z,60.00
2023-03-24T16:38:29.193Z,60.70
2023-03-24T16:40:57.844Z,60.70
2023-03-24T16:43:27.496Z,61.00
2023-03-24T16:45:55.648Z,62.10
2023-03-24T16:48:23.333Z,63.20
2023-03-24T16:50:53.526Z,63.60
2023-03-24T16:53:21.573Z,64.50
2023-03-24T16:55:49.299Z,65.20
2023-03-24T16:58:17.328Z,65.00
2023-03-24T17:00:45.939Z,65.20
2023-03-24T17:03:14.172Z,65.70
2023-03-24T17:05:51.248Z,65.70
2023-03-24T17:08:19.597Z,66.50
2023-03-24T17:10:51.628Z,66.80
2023-03-24T17:13:25.935Z,66.90
2023-03-24T17:15:54.040Z,66.90
2023-03-24T17:18:22.029Z,67.10
2023-03-24T17:20:50.008Z,67.00
2023-03-24T17:23:22.127Z,67.10
2023-03-24T17:25:50.314Z,67.10
2023-03-24T17:28:18.848Z,67.70
2023-03-24T17:30:46.908Z,66.30
2023-03-24T17:33:16.740Z,67.40
2023-03-24T17:35:46.755Z,66.80
2023-03-24T17:38:16.720Z,68.20
2023-03-24T17:40:46.916Z,68.70
2023-03-24T17:43:15.160Z,68.00
2023-03-24T17:45:44.035Z,68.50
2023-03-24T17:48:12.240Z,69.50
2023-03-24T17:50:41.301Z,69.10
2023-03-24T17:53:10.134Z,69.40
2023-03-24T17:55:38.545Z,70.30
2023-03-24T17:58:07.772Z,70.40
2023-03-24T18:00:37.282Z,70.90
2023-03-24T18:03:05.571Z,69.80
2023-03-24T18:05:36.797Z,70.50
2023-03-24T18:08:06.030Z,70.60
2023-03-24T18:10:36.301Z,70.60
2023-03-24T18:13:06.661Z,72.60
2023-03-24T18:15:37.704Z,72.50
2023-03-24T18:18:06.551Z,71.70
2023-03-24T18:20:38.093Z,71.00
2023-03-24T18:23:07.027Z,71.80
2023-03-24T18:25:37.138Z,70.80
2023-03-24T18:28:06.783Z,70.90
2023-03-24T18:30:35.660Z,70.90
2023-03-24T18:33:04.162Z,70.30
2023-03-24T18:35:32.225Z,70.40
2023-03-24T18:38:01.116Z,69.80
2023-03-24T18:40:29.354Z,69.80
2023-03-24T18:42:58.084Z,70.40
2023-03-24T18:45:27.060Z,70.60
2023-03-24T18:47:55.723Z,70.50
2023-03-24T18:50:24.059Z,70.60
2023-03-24T18:52:52.844Z,71.10
2023-03-24T18:55:22.379Z,71.00
2023-03-24T18:57:51.190Z,70.40
2023-03-24T19:00:21.023Z,71.60
2023-03-24T19:02:49.840Z,71.10
2023-03-24T19:05:19.449Z,70.70
2023-03-24T19:07:49.866Z,72.00
2023-03-24T19:10:27.984Z,71.60
2023-03-24T19:12:57.243Z,72.10
2023-03-24T19:15:25.825Z,71.60
2023-03-24T19:17:55.852Z,72.60
2023-03-24T19:20:27.075Z,72.00
2023-03-24T19:22:56.832Z,71.90
2023-03-24T19:25:26.358Z,72.30
2023-03-24T19:27:55.017Z,71.30
2023-03-24T19:30:25.197Z,71.60
2023-03-24T19:32:54.273Z,71.90
2023-03-24T19:35:23.519Z,71.50
2023-03-24T19:37:54.761Z,71.70
2023-03-24T19:40:24.791Z,72.20
2023-03-24T19:42:53.513Z,72.90
2023-03-24T19:45:22.398Z,72.60
2023-03-24T19:47:51.163Z,72.40
2023-03-24T19:50:20.043Z,72.20
2023-03-24T19:52:48.378Z,72.60
2023-03-24T19:55:17.468Z,73.20
2023-03-24T19:57:46.176Z,72.80
2023-03-24T20:00:17.014Z,73.50
2023-03-24T20:02:46.621Z,70.00
2023-03-24T20:05:16.942Z,68.90
2023-03-24T20:07:47.984Z,68.50
2023-03-24T20:10:18.756Z,68.20
2023-03-24T20:12:47.739Z,69.30
2023-03-24T20:15:17.087Z,69.60
2023-03-24T20:17:46.698Z,69.40
2023-03-24T20:20:17.201Z,69.80
2023-03-24T20:22:47.676Z,70.00
2023-03-24T20:25:18.882Z,70.70
2023-03-24T20:27:48.452Z,70.90
2023-03-24T20:30:24.207Z,71.20
2023-03-24T20:32:57.547Z,71.50
2023-03-24T20:35:28.195Z,71.50
2023-03-24T20:37:57.143Z,71.80
2023-03-24T20:40:27.581Z,72.20
2023-03-24T20:42:57.649Z,72.60
2023-03-24T20:45:27.511Z,72.80
2023-03-24T20:47:56.316Z,73.30
2023-03-24T20:50:25.369Z,73.60
2023-03-24T20:52:56.381Z,74.00
2023-03-24T20:55:24.919Z,74.30
2023-03-24T20:57:54.664Z,74.50
2023-03-24T21:00:23.506Z,74.60
2023-03-24T21:02:53.713Z,75.10
2023-03-24T21:05:23.150Z,75.30
2023-03-24T21:07:51.322Z,75.60
2023-03-24T21:10:20.119Z,76.10
2023-03-24T21:12:52.808Z,76.40
2023-03-24T21:15:26.662Z,76.60
2023-03-24T21:17:56.038Z,77.00
2023-03-24T21:20:27.110Z,77.40
2023-03-24T21:22:55.802Z,77.90
2023-03-24T21:25:27.422Z,78.30
2023-03-24T21:27:56.851Z,78.20
2023-03-24T21:30:26.912Z,78.60
2023-03-24T21:32:57.285Z,78.70
2023-03-24T21:35:25.748Z,78.80
2023-03-24T21:37:54.014Z,78.80
2023-03-24T21:40:25.299Z,78.60
2023-03-24T21:42:54.135Z,78.70
2023-03-24T21:45:23.802Z,79.00
2023-03-24T21:47:55.342Z,79.00
2023-03-24T21:50:23.778Z,79.30
2023-03-24T21:52:53.637Z,79.50
2023-03-24T21:55:22.466Z,79.60
2023-03-24T21:57:51.164Z,79.80
2023-03-24T22:00:21.933Z,79.80
2023-03-24T22:02:51.967Z,79.80
2023-03-24T22:05:27.802Z,80.00
2023-03-24T22:07:56.206Z,80.00
2023-03-24T22:10:24.267Z,80.10
2023-03-24T22:12:53.291Z,80.40
2023-03-24T22:15:21.727Z,80.20
2023-03-24T22:17:50.422Z,80.00
2023-03-24T22:20:18.346Z,79.90
2023-03-24T22:22:46.243Z,79.70
2023-03-24T22:25:16.694Z,79.70
2023-03-24T22:27:45.098Z,79.40
2023-03-24T22:30:14.125Z,79.20
2023-03-24T22:32:42.050Z,79.10
2023-03-24T22:35:09.952Z,79.00
2023-03-24T22:37:37.672Z,79.50
2023-03-24T22:40:06.784Z,78.30
2023-03-24T22:42:34.478Z,77.60
2023-03-24T22:45:02.096Z,77.20
2023-03-24T22:47:29.928Z,77.00
2023-03-24T22:49:58.830Z,77.20
2023-03-24T22:52:28.068Z,77.40
2023-03-24T22:54:55.874Z,76.00
2023-03-24T22:57:23.454Z,76.00
2023-03-24T22:59:51.122Z,76.10
2023-03-24T23:02:24.495Z,76.10
2023-03-24T23:04:55.032Z,77.60
2023-03-24T23:07:22.892Z,79.10
2023-03-24T23:09:53.383Z,80.10
2023-03-24T23:12:22.598Z,80.50
2023-03-24T23:14:50.400Z,80.30
2023-03-24T23:17:18.106Z,81.50
2023-03-24T23:19:45.770Z,82.20
2023-03-24T23:22:13.508Z,82.80
2023-03-24T23:24:41.141Z,82.90
2023-03-24T23:27:08.759Z,83.40
2023-03-24T23:29:40.429Z,83.80
2023-03-24T23:32:08.585Z,83.90
2023-03-24T23:34:36.989Z,84.00
2023-03-24T23:37:04.913Z,83.90
2023-03-24T23:39:33.925Z,83.80
2023-03-24T23:42:01.550Z,83.80
2023-03-24T23:44:29.412Z,84.20
2023-03-24T23:46:57.781Z,85.10
2023-03-24T23:49:25.948Z,85.60
2023-03-24T23:51:53.563Z,85.30
2023-03-24T23:54:21.251Z,84.90
2023-03-24T23:56:51.568Z,87.10
2023-03-24T23:59:19.279Z,85.70
